sensor_id;sensor_type;location;lat;lon;timestamp;pressure;altitude;pressure_sealevel;temperature
63220;BMP180;49320;52.512;13.448;2023-02-01T00:00:55;100589.00;;;11.50
63220;BMP180;49320;52.512;13.448;2023-02-01T00:03:21;100588.00;;;11.50
63220;BMP180;49320;52.512;13.448;2023-02-01T00:05:56;100590.00;;;11.50
63220;BMP180;49320;52.512;13.448;2023-02-01T00:08:24;100588.00;;;11.50
63220;BMP180;49320;52.512;13.448;2023-02-01T00:10:59;100583.00;;;11.60
63220;BMP180;49320;52.512;13.448;2023-02-01T00:13:29;100578.00;;;11.60
63220;BMP180;49320;52.512;13.448;2023-02-01T00:16:16;100577.00;;;11.60
63220;BMP180;49320;52.512;13.448;2023-02-01T00:18:45;100594.00;;;11.60
63220;BMP180;49320;52.512;13.448;2023-02-01T00:21:14;100586.00;;;11.60
63220;BMP180;49320;52.512;13.448;2023-02-01T00:23:42;100593.00;;;11.60
63220;BMP180;49320;52.512;13.448;2023-02-01T00:26:18;100593.00;;;11.60
63220;BMP180;49320;52.512;13.448;2023-02-01T00:28:46;100583.00;;;11.60
63220;BMP180;49320;52.512;13.448;2023-02-01T00:31:13;100580.00;;;11.60
63220;BMP180;49320;52.512;13.448;2023-02-01T00:33:40;100582.00;;;11.60
63220;BMP180;49320;52.512;13.448;2023-02-01T00:36:09;100580.00;;;11.60
63220;BMP180;49320;52.512;13.448;2023-02-01T00:38:37;100576.00;;;11.70
63220;BMP180;49320;52.512;13.448;2023-02-01T00:41:14;100588.00;;;11.60
63220;BMP180;49320;52.512;13.448;2023-02-01T00:43:42;100588.00;;;11.60
63220;BMP180;49320;52.512;13.448;2023-02-01T00:46:10;100592.00;;;11.60
63220;BMP180;49320;52.512;13.448;2023-02-01T00:48:37;100592.00;;;11.60
63220;BMP180;49320;52.512;13.448;2023-02-01T00:51:12;100599.00;;;11.60
63220;BMP180;49320;52.512;13.448;2023-02-01T00:53:39;100588.00;;;11.60
63220;BMP180;49320;52.512;13.448;2023-02-01T00:56:07;100598.00;;;11.60
63220;BMP180;49320;52.512;13.448;2023-02-01T00:58:35;100594.00;;;11.60
63220;BMP180;49320;52.512;13.448;2023-02-01T01:01:18;100598.00;;;11.70
63220;BMP180;49320;52.512;13.448;2023-02-01T01:03:59;100612.00;;;11.70
63220;BMP180;49320;52.512;13.448;2023-02-01T01:06:32;100607.00;;;11.70
63220;BMP180;49320;52.512;13.448;2023-02-01T01:09:04;100599.00;;;11.70
63220;BMP180;49320;52.512;13.448;2023-02-01T01:11:35;100614.00;;;11.70
63220;BMP180;49320;52.512;13.448;2023-02-01T01:14:04;100597.00;;;11.70
63220;BMP180;49320;52.512;13.448;2023-02-01T01:16:32;100595.00;;;11.70
63220;BMP180;49320;52.512;13.448;2023-02-01T01:19:00;100583.00;;;11.70
63220;BMP180;49320;52.512;13.448;2023-02-01T01:21:27;100591.00;;;11.60
63220;BMP180;49320;52.512;13.448;2023-02-01T01:23:55;100586.00;;;11.70
63220;BMP180;49320;52.512;13.448;2023-02-01T01:26:25;100589.00;;;11.60
63220;BMP180;49320;52.512;13.448;2023-02-01T01:28:56;100576.00;;;11.60
63220;BMP180;49320;52.512;13.448;2023-02-01T01:31:25;100575.00;;;11.60
63220;BMP180;49320;52.512;13.448;2023-02-01T01:33:55;100576.00;;;11.60
63220;BMP180;49320;52.512;13.448;2023-02-01T01:36:23;100578.00;;;11.60
63220;BMP180;49320;52.512;13.448;2023-02-01T01:38:50;100561.00;;;11.50
63220;BMP180;49320;52.512;13.448;2023-02-01T01:41:25;100565.00;;;11.50
63220;BMP180;49320;52.512;13.448;2023-02-01T01:43:56;100557.00;;;11.50
63220;BMP180;49320;52.512;13.448;2023-02-01T01:46:35;100559.00;;;11.50
63220;BMP180;49320;52.512;13.448;2023-02-01T01:49:09;100547.00;;;11.50
63220;BMP180;49320;52.512;13.448;2023-02-01T01:51:44;100552.00;;;11.50
63220;BMP180;49320;52.512;13.448;2023-02-01T01:54:33;100553.00;;;11.50
63220;BMP180;49320;52.512;13.448;2023-02-01T01:57:08;100547.00;;;11.50
63220;BMP180;49320;52.512;13.448;2023-02-01T01:59:38;100543.00;;;11.50
63220;BMP180;49320;52.512;13.448;2023-02-01T02:02:06;100551.00;;;11.50
63220;BMP180;49320;52.512;13.448;2023-02-01T02:04:35;100545.00;;;11.50
63220;BMP180;49320;52.512;13.448;2023-02-01T02:07:19;100551.00;;;11.50
63220;BMP180;49320;52.512;13.448;2023-02-01T02:09:48;100553.00;;;11.50
63220;BMP180;49320;52.512;13.448;2023-02-01T02:12:26;100553.00;;;11.50
63220;BMP180;49320;52.512;13.448;2023-02-01T02:14:54;100554.00;;;11.50
63220;BMP180;49320;52.512;13.448;2023-02-01T02:17:44;100556.00;;;11.50
63220;BMP180;49320;52.512;13.448;2023-02-01T02:20:50;100569.00;;;11.50
63220;BMP180;49320;52.512;13.448;2023-02-01T02:24:09;100552.00;;;11.50
63220;BMP180;49320;52.512;13.448;2023-02-01T02:27:00;100551.00;;;11.50
63220;BMP180;49320;52.512;13.448;2023-02-01T02:29:56;100542.00;;;11.50
63220;BMP180;49320;52.512;13.448;2023-02-01T02:33:02;100539.00;;;11.50
63220;BMP180;49320;52.512;13.448;2023-02-01T02:35:50;100532.00;;;11.50
63220;BMP180;49320;52.512;13.448;2023-02-01T02:38:34;100542.00;;;11.50
63220;BMP180;49320;52.512;13.448;2023-02-01T02:41:18;100541.00;;;11.50
63220;BMP180;49320;52.512;13.448;2023-02-01T02:44:20;100523.00;;;11.50
63220;BMP180;49320;52.512;13.448;2023-02-01T02:47:18;100537.00;;;11.50
63220;BMP180;49320;52.512;13.448;2023-02-01T02:50:04;100531.00;;;11.50
63220;BMP180;49320;52.512;13.448;2023-02-01T02:53:02;100540.00;;;11.50
63220;BMP180;49320;52.512;13.448;2023-02-01T02:55:50;100534.00;;;11.50
63220;BMP180;49320;52.512;13.448;2023-02-01T02:58:21;100540.00;;;11.60
63220;BMP180;49320;52.512;13.448;2023-02-01T03:01:06;100542.00;;;11.60
63220;BMP180;49320;52.512;13.448;2023-02-01T03:03:52;100531.00;;;11.60
63220;BMP180;49320;52.512;13.448;2023-02-01T03:06:37;100537.00;;;11.60
63220;BMP180;49320;52.512;13.448;2023-02-01T03:09:14;100532.00;;;11.60
63220;BMP180;49320;52.512;13.448;2023-02-01T03:11:47;100520.00;;;11.60
63220;BMP180;49320;52.512;13.448;2023-02-01T03:14:36;100529.00;;;11.70
63220;BMP180;49320;52.512;13.448;2023-02-01T03:17:13;100520.00;;;11.70
63220;BMP180;49320;52.512;13.448;2023-02-01T03:19:45;100515.00;;;11.70
63220;BMP180;49320;52.512;13.448;2023-02-01T03:22:27;100512.00;;;11.70
63220;BMP180;49320;52.512;13.448;2023-02-01T03:25:17;100513.00;;;11.70
63220;BMP180;49320;52.512;13.448;2023-02-01T03:27:54;100507.00;;;11.70
63220;BMP180;49320;52.512;13.448;2023-02-01T03:30:28;100499.00;;;11.70
63220;BMP180;49320;52.512;13.448;2023-02-01T03:33:00;100493.00;;;11.70
63220;BMP180;49320;52.512;13.448;2023-02-01T03:35:43;100485.00;;;11.80
63220;BMP180;49320;52.512;13.448;2023-02-01T03:38:20;100481.00;;;11.80
63220;BMP180;49320;52.512;13.448;2023-02-01T03:41:17;100485.00;;;11.80
63220;BMP180;49320;52.512;13.448;2023-02-01T03:47:02;100479.00;;;11.80
63220;BMP180;49320;52.512;13.448;2023-02-01T03:49:36;100471.00;;;11.80
63220;BMP180;49320;52.512;13.448;2023-02-01T03:52:09;100466.00;;;11.80
63220;BMP180;49320;52.512;13.448;2023-02-01T03:54:38;100471.00;;;11.80
63220;BMP180;49320;52.512;13.448;2023-02-01T03:57:11;100476.00;;;11.80
63220;BMP180;49320;52.512;13.448;2023-02-01T03:59:45;100461.00;;;11.80
63220;BMP180;49320;52.512;13.448;2023-02-01T04:02:12;100471.00;;;11.80
63220;BMP180;49320;52.512;13.448;2023-02-01T04:04:39;100468.00;;;11.80
63220;BMP180;49320;52.512;13.448;2023-02-01T04:07:05;100471.00;;;11.80
63220;BMP180;49320;52.512;13.448;2023-02-01T04:09:32;100476.00;;;11.80
63220;BMP180;49320;52.512;13.448;2023-02-01T04:11:59;100466.00;;;11.80
63220;BMP180;49320;52.512;13.448;2023-02-01T04:14:26;100456.00;;;11.90
63220;BMP180;49320;52.512;13.448;2023-02-01T04:16:53;100467.00;;;11.90
63220;BMP180;49320;52.512;13.448;2023-02-01T04:19:20;100476.00;;;12.00
63220;BMP180;49320;52.512;13.448;2023-02-01T04:21:47;100481.00;;;12.00
63220;BMP180;49320;52.512;13.448;2023-02-01T04:24:14;100466.00;;;12.00
63220;BMP180;49320;52.512;13.448;2023-02-01T04:26:40;100477.00;;;12.00
63220;BMP180;49320;52.512;13.448;2023-02-01T04:29:09;100477.00;;;12.10
63220;BMP180;49320;52.512;13.448;2023-02-01T04:31:36;100469.00;;;12.10
63220;BMP180;49320;52.512;13.448;2023-02-01T04:34:03;100469.00;;;12.10
63220;BMP180;49320;52.512;13.448;2023-02-01T04:36:30;100468.00;;;12.20
63220;BMP180;49320;52.512;13.448;2023-02-01T04:38:57;100480.00;;;12.20
63220;BMP180;49320;52.512;13.448;2023-02-01T04:41:24;100466.00;;;12.30
63220;BMP180;49320;52.512;13.448;2023-02-01T04:43:51;100479.00;;;12.30
63220;BMP180;49320;52.512;13.448;2023-02-01T04:46:19;100464.00;;;12.30
63220;BMP180;49320;52.512;13.448;2023-02-01T04:48:45;100463.00;;;12.40
63220;BMP180;49320;52.512;13.448;2023-02-01T04:51:12;100466.00;;;12.40
63220;BMP180;49320;52.512;13.448;2023-02-01T04:53:39;100457.00;;;12.50
63220;BMP180;49320;52.512;13.448;2023-02-01T04:56:06;100456.00;;;12.50
63220;BMP180;49320;52.512;13.448;2023-02-01T04:58:33;100456.00;;;12.50
63220;BMP180;49320;52.512;13.448;2023-02-01T05:01:04;100463.00;;;12.50
63220;BMP180;49320;52.512;13.448;2023-02-01T05:03:35;100449.00;;;12.60
63220;BMP180;49320;52.512;13.448;2023-02-01T05:06:01;100435.00;;;12.60
63220;BMP180;49320;52.512;13.448;2023-02-01T05:08:32;100444.00;;;12.60
63220;BMP180;49320;52.512;13.448;2023-02-01T05:10:59;100449.00;;;12.70
63220;BMP180;49320;52.512;13.448;2023-02-01T05:13:29;100441.00;;;12.70
63220;BMP180;49320;52.512;13.448;2023-02-01T05:16:15;100431.00;;;12.70
63220;BMP180;49320;52.512;13.448;2023-02-01T05:18:42;100433.00;;;12.70
63220;BMP180;49320;52.512;13.448;2023-02-01T05:21:09;100416.00;;;12.70
63220;BMP180;49320;52.512;13.448;2023-02-01T05:23:36;100425.00;;;12.70
63220;BMP180;49320;52.512;13.448;2023-02-01T05:26:24;100431.00;;;12.80
63220;BMP180;49320;52.512;13.448;2023-02-01T05:28:51;100431.00;;;12.80
63220;BMP180;49320;52.512;13.448;2023-02-01T05:31:18;100425.00;;;12.80
63220;BMP180;49320;52.512;13.448;2023-02-01T05:33:45;100419.00;;;12.80
63220;BMP180;49320;52.512;13.448;2023-02-01T05:36:12;100426.00;;;12.80
63220;BMP180;49320;52.512;13.448;2023-02-01T05:38:39;100423.00;;;12.90
63220;BMP180;49320;52.512;13.448;2023-02-01T05:41:05;100435.00;;;12.90
63220;BMP180;49320;52.512;13.448;2023-02-01T05:43:32;100430.00;;;12.90
63220;BMP180;49320;52.512;13.448;2023-02-01T05:45:59;100431.00;;;12.90
63220;BMP180;49320;52.512;13.448;2023-02-01T05:48:26;100423.00;;;12.90
63220;BMP180;49320;52.512;13.448;2023-02-01T05:50:54;100408.00;;;12.90
63220;BMP180;49320;52.512;13.448;2023-02-01T05:53:21;100410.00;;;12.90
63220;BMP180;49320;52.512;13.448;2023-02-01T05:55:48;100407.00;;;12.90
63220;BMP180;49320;52.512;13.448;2023-02-01T05:58:15;100407.00;;;13.00
63220;BMP180;49320;52.512;13.448;2023-02-01T06:00:42;100395.00;;;13.00
63220;BMP180;49320;52.512;13.448;2023-02-01T06:03:08;100400.00;;;12.90
63220;BMP180;49320;52.512;13.448;2023-02-01T06:05:35;100402.00;;;12.90
63220;BMP180;49320;52.512;13.448;2023-02-01T06:08:03;100404.00;;;13.00
63220;BMP180;49320;52.512;13.448;2023-02-01T06:10:30;100394.00;;;13.00
63220;BMP180;49320;52.512;13.448;2023-02-01T06:12:57;100397.00;;;13.00
63220;BMP180;49320;52.512;13.448;2023-02-01T06:15:23;100404.00;;;13.10
63220;BMP180;49320;52.512;13.448;2023-02-01T06:17:50;100395.00;;;13.10
63220;BMP180;49320;52.512;13.448;2023-02-01T06:20:17;100399.00;;;13.10
63220;BMP180;49320;52.512;13.448;2023-02-01T06:22:44;100397.00;;;13.10
63220;BMP180;49320;52.512;13.448;2023-02-01T06:25:11;100389.00;;;13.10
63220;BMP180;49320;52.512;13.448;2023-02-01T06:27:38;100400.00;;;13.00
63220;BMP180;49320;52.512;13.448;2023-02-01T06:30:06;100399.00;;;12.90
63220;BMP180;49320;52.512;13.448;2023-02-01T06:32:33;100393.00;;;12.90
63220;BMP180;49320;52.512;13.448;2023-02-01T06:35:00;100392.00;;;12.90
63220;BMP180;49320;52.512;13.448;2023-02-01T06:37:27;100389.00;;;12.90
63220;BMP180;49320;52.512;13.448;2023-02-01T06:39:56;100395.00;;;12.90
63220;BMP180;49320;52.512;13.448;2023-02-01T06:42:22;100381.00;;;12.90
63220;BMP180;49320;52.512;13.448;2023-02-01T06:44:49;100390.00;;;12.80
63220;BMP180;49320;52.512;13.448;2023-02-01T06:47:16;100396.00;;;12.80
63220;BMP180;49320;52.512;13.448;2023-02-01T06:49:43;100391.00;;;12.90
63220;BMP180;49320;52.512;13.448;2023-02-01T06:52:10;100384.00;;;12.90
63220;BMP180;49320;52.512;13.448;2023-02-01T06:54:37;100380.00;;;12.90
63220;BMP180;49320;52.512;13.448;2023-02-01T06:57:04;100377.00;;;12.90
63220;BMP180;49320;52.512;13.448;2023-02-01T06:59:31;100365.00;;;12.90
63220;BMP180;49320;52.512;13.448;2023-02-01T07:01:58;100365.00;;;12.90
63220;BMP180;49320;52.512;13.448;2023-02-01T07:04:24;100352.00;;;12.90
63220;BMP180;49320;52.512;13.448;2023-02-01T07:06:51;100350.00;;;12.90
63220;BMP180;49320;52.512;13.448;2023-02-01T07:09:18;100349.00;;;12.90
63220;BMP180;49320;52.512;13.448;2023-02-01T07:11:45;100352.00;;;12.90
63220;BMP180;49320;52.512;13.448;2023-02-01T07:14:12;100353.00;;;12.90
63220;BMP180;49320;52.512;13.448;2023-02-01T07:16:39;100356.00;;;12.90
63220;BMP180;49320;52.512;13.448;2023-02-01T07:19:06;100344.00;;;13.00
63220;BMP180;49320;52.512;13.448;2023-02-01T07:21:33;100356.00;;;12.90
63220;BMP180;49320;52.512;13.448;2023-02-01T07:24:00;100339.00;;;13.00
63220;BMP180;49320;52.512;13.448;2023-02-01T07:26:27;100344.00;;;13.00
63220;BMP180;49320;52.512;13.448;2023-02-01T07:28:54;100346.00;;;13.00
63220;BMP180;49320;52.512;13.448;2023-02-01T07:31:21;100352.00;;;13.00
63220;BMP180;49320;52.512;13.448;2023-02-01T07:33:49;100346.00;;;13.00
63220;BMP180;49320;52.512;13.448;2023-02-01T07:36:19;100335.00;;;13.00
63220;BMP180;49320;52.512;13.448;2023-02-01T07:38:46;100331.00;;;13.00
63220;BMP180;49320;52.512;13.448;2023-02-01T07:41:14;100318.00;;;13.00
63220;BMP180;49320;52.512;13.448;2023-02-01T07:43:41;100312.00;;;13.00
63220;BMP180;49320;52.512;13.448;2023-02-01T07:46:09;100319.00;;;13.00
63220;BMP180;49320;52.512;13.448;2023-02-01T07:48:37;100318.00;;;13.00
63220;BMP180;49320;52.512;13.448;2023-02-01T07:51:09;100319.00;;;13.00
63220;BMP180;49320;52.512;13.448;2023-02-01T07:53:36;100325.00;;;13.00
63220;BMP180;49320;52.512;13.448;2023-02-01T07:56:10;100330.00;;;12.90
63220;BMP180;49320;52.512;13.448;2023-02-01T07:58:37;100333.00;;;12.90
63220;BMP180;49320;52.512;13.448;2023-02-01T08:01:04;100324.00;;;12.80
63220;BMP180;49320;52.512;13.448;2023-02-01T08:03:53;100332.00;;;12.70
63220;BMP180;49320;52.512;13.448;2023-02-01T08:06:21;100331.00;;;12.60
63220;BMP180;49320;52.512;13.448;2023-02-01T08:08:50;100333.00;;;12.50
63220;BMP180;49320;52.512;13.448;2023-02-01T08:11:18;100332.00;;;12.30
63220;BMP180;49320;52.512;13.448;2023-02-01T08:13:45;100319.00;;;12.30
63220;BMP180;49320;52.512;13.448;2023-02-01T08:16:14;100312.00;;;12.20
63220;BMP180;49320;52.512;13.448;2023-02-01T08:18:42;100334.00;;;12.10
63220;BMP180;49320;52.512;13.448;2023-02-01T08:21:27;100333.00;;;12.00
63220;BMP180;49320;52.512;13.448;2023-02-01T08:24:08;100340.00;;;11.90
63220;BMP180;49320;52.512;13.448;2023-02-01T08:26:35;100320.00;;;11.90
63220;BMP180;49320;52.512;13.448;2023-02-01T08:29:05;100337.00;;;11.80
63220;BMP180;49320;52.512;13.448;2023-02-01T08:31:33;100339.00;;;11.80
63220;BMP180;49320;52.512;13.448;2023-02-01T08:34:02;100338.00;;;11.70
63220;BMP180;49320;52.512;13.448;2023-02-01T08:36:31;100335.00;;;11.70
63220;BMP180;49320;52.512;13.448;2023-02-01T08:38:58;100339.00;;;11.70
63220;BMP180;49320;52.512;13.448;2023-02-01T08:41:29;100340.00;;;11.70
63220;BMP180;49320;52.512;13.448;2023-02-01T08:43:57;100335.00;;;11.70
63220;BMP180;49320;52.512;13.448;2023-02-01T08:46:24;100345.00;;;11.70
63220;BMP180;49320;52.512;13.448;2023-02-01T08:48:51;100339.00;;;11.70
63220;BMP180;49320;52.512;13.448;2023-02-01T08:51:21;100344.00;;;11.70
63220;BMP180;49320;52.512;13.448;2023-02-01T08:53:49;100341.00;;;11.70
63220;BMP180;49320;52.512;13.448;2023-02-01T08:56:18;100349.00;;;11.60
63220;BMP180;49320;52.512;13.448;2023-02-01T08:58:45;100336.00;;;11.60
63220;BMP180;49320;52.512;13.448;2023-02-01T09:01:15;100356.00;;;11.50
63220;BMP180;49320;52.512;13.448;2023-02-01T09:03:43;100353.00;;;11.50
63220;BMP180;49320;52.512;13.448;2023-02-01T09:06:12;100373.00;;;11.50
63220;BMP180;49320;52.512;13.448;2023-02-01T09:08:40;100357.00;;;11.50
63220;BMP180;49320;52.512;13.448;2023-02-01T09:11:12;100368.00;;;11.50
63220;BMP180;49320;52.512;13.448;2023-02-01T09:13:40;100364.00;;;11.50
63220;BMP180;49320;52.512;13.448;2023-02-01T09:16:07;100354.00;;;11.50
63220;BMP180;49320;52.512;13.448;2023-02-01T09:18:34;100368.00;;;11.50
63220;BMP180;49320;52.512;13.448;2023-02-01T09:21:06;100378.00;;;11.50
63220;BMP180;49320;52.512;13.448;2023-02-01T09:23:34;100380.00;;;11.50
63220;BMP180;49320;52.512;13.448;2023-02-01T09:26:03;100374.00;;;11.50
63220;BMP180;49320;52.512;13.448;2023-02-01T09:28:31;100384.00;;;11.50
63220;BMP180;49320;52.512;13.448;2023-02-01T09:31:00;100380.00;;;11.60
63220;BMP180;49320;52.512;13.448;2023-02-01T09:33:28;100376.00;;;11.60
63220;BMP180;49320;52.512;13.448;2023-02-01T09:36:01;100396.00;;;11.60
63220;BMP180;49320;52.512;13.448;2023-02-01T09:38:30;100396.00;;;11.70
63220;BMP180;49320;52.512;13.448;2023-02-01T09:41:00;100410.00;;;11.70
63220;BMP180;49320;52.512;13.448;2023-02-01T09:46:45;100408.00;;;11.90
63220;BMP180;49320;52.512;13.448;2023-02-01T09:49:20;100412.00;;;11.90
63220;BMP180;49320;52.512;13.448;2023-02-01T09:51:50;100416.00;;;12.00
63220;BMP180;49320;52.512;13.448;2023-02-01T09:54:24;100417.00;;;12.00
63220;BMP180;49320;52.512;13.448;2023-02-01T09:57:25;100413.00;;;12.00
63220;BMP180;49320;52.512;13.448;2023-02-01T10:00:03;100414.00;;;12.10
63220;BMP180;49320;52.512;13.448;2023-02-01T10:02:36;100423.00;;;12.10
63220;BMP180;49320;52.512;13.448;2023-02-01T10:05:05;100417.00;;;12.10
63220;BMP180;49320;52.512;13.448;2023-02-01T10:07:47;100421.00;;;12.10
63220;BMP180;49320;52.512;13.448;2023-02-01T10:10:40;100427.00;;;12.10
63220;BMP180;49320;52.512;13.448;2023-02-01T10:16:48;100429.00;;;12.00
63220;BMP180;49320;52.512;13.448;2023-02-01T10:19:55;100425.00;;;11.90
63220;BMP180;49320;52.512;13.448;2023-02-01T10:22:46;100430.00;;;11.90
63220;BMP180;49320;52.512;13.448;2023-02-01T10:25:42;100430.00;;;11.80
63220;BMP180;49320;52.512;13.448;2023-02-01T10:28:17;100419.00;;;11.80
63220;BMP180;49320;52.512;13.448;2023-02-01T10:30:47;100434.00;;;11.80
63220;BMP180;49320;52.512;13.448;2023-02-01T10:33:22;100430.00;;;11.80
63220;BMP180;49320;52.512;13.448;2023-02-01T10:36:00;100436.00;;;11.80
63220;BMP180;49320;52.512;13.448;2023-02-01T10:38:33;100437.00;;;11.80
63220;BMP180;49320;52.512;13.448;2023-02-01T10:41:15;100430.00;;;11.90
63220;BMP180;49320;52.512;13.448;2023-02-01T10:43:46;100431.00;;;12.00
63220;BMP180;49320;52.512;13.448;2023-02-01T10:46:14;100424.00;;;12.10
63220;BMP180;49320;52.512;13.448;2023-02-01T10:48:42;100428.00;;;12.10
63220;BMP180;49320;52.512;13.448;2023-02-01T10:51:24;100439.00;;;12.10
63220;BMP180;49320;52.512;13.448;2023-02-01T10:54:03;100426.00;;;12.10
63220;BMP180;49320;52.512;13.448;2023-02-01T10:56:38;100443.00;;;12.20
63220;BMP180;49320;52.512;13.448;2023-02-01T10:59:23;100440.00;;;12.10
63220;BMP180;49320;52.512;13.448;2023-02-01T11:02:00;100442.00;;;12.10
63220;BMP180;49320;52.512;13.448;2023-02-01T11:04:34;100434.00;;;12.10
63220;BMP180;49320;52.512;13.448;2023-02-01T11:07:16;100425.00;;;12.00
63220;BMP180;49320;52.512;13.448;2023-02-01T11:09:51;100422.00;;;12.00
63220;BMP180;49320;52.512;13.448;2023-02-01T11:12:32;100414.00;;;12.10
63220;BMP180;49320;52.512;13.448;2023-02-01T11:15:23;100412.00;;;12.10
63220;BMP180;49320;52.512;13.448;2023-02-01T11:17:52;100414.00;;;12.20
63220;BMP180;49320;52.512;13.448;2023-02-01T11:20:38;100406.00;;;12.30
63220;BMP180;49320;52.512;13.448;2023-02-01T11:23:19;100408.00;;;12.40
63220;BMP180;49320;52.512;13.448;2023-02-01T11:25:57;100394.00;;;12.50
63220;BMP180;49320;52.512;13.448;2023-02-01T11:28:32;100410.00;;;12.60
63220;BMP180;49320;52.512;13.448;2023-02-01T11:31:04;100387.00;;;12.60
63220;BMP180;49320;52.512;13.448;2023-02-01T11:33:36;100388.00;;;12.70
63220;BMP180;49320;52.512;13.448;2023-02-01T11:36:13;100378.00;;;12.70
63220;BMP180;49320;52.512;13.448;2023-02-01T11:38:51;100376.00;;;12.80
63220;BMP180;49320;52.512;13.448;2023-02-01T11:41:27;100383.00;;;12.90
63220;BMP180;49320;52.512;13.448;2023-02-01T11:44:00;100378.00;;;13.00
63220;BMP180;49320;52.512;13.448;2023-02-01T11:46:34;100373.00;;;13.10
63220;BMP180;49320;52.512;13.448;2023-02-01T11:49:23;100365.00;;;13.20
63220;BMP180;49320;52.512;13.448;2023-02-01T11:52:21;100357.00;;;13.30
63220;BMP180;49320;52.512;13.448;2023-02-01T11:55:05;100358.00;;;13.40
63220;BMP180;49320;52.512;13.448;2023-02-01T12:00:57;100354.00;;;13.50
63220;BMP180;49320;52.512;13.448;2023-02-01T12:03:51;100355.00;;;13.60
63220;BMP180;49320;52.512;13.448;2023-02-01T12:13:12;100344.00;;;13.90
63220;BMP180;49320;52.512;13.448;2023-02-01T12:16:00;100347.00;;;13.90
63220;BMP180;49320;52.512;13.448;2023-02-01T12:18:56;100333.00;;;14.00
63220;BMP180;49320;52.512;13.448;2023-02-01T12:21:46;100338.00;;;14.10
63220;BMP180;49320;52.512;13.448;2023-02-01T12:24:44;100330.00;;;14.20
63220;BMP180;49320;52.512;13.448;2023-02-01T12:27:21;100333.00;;;14.30
63220;BMP180;49320;52.512;13.448;2023-02-01T12:30:30;100316.00;;;14.40
63220;BMP180;49320;52.512;13.448;2023-02-01T12:33:52;100316.00;;;14.40
63220;BMP180;49320;52.512;13.448;2023-02-01T12:42:03;100302.00;;;14.40
63220;BMP180;49320;52.512;13.448;2023-02-01T12:44:59;100287.00;;;14.30
63220;BMP180;49320;52.512;13.448;2023-02-01T12:47:55;100282.00;;;14.30
63220;BMP180;49320;52.512;13.448;2023-02-01T12:51:23;100270.00;;;14.30
63220;BMP180;49320;52.512;13.448;2023-02-01T12:53:51;100274.00;;;14.20
63220;BMP180;49320;52.512;13.448;2023-02-01T12:59:44;100259.00;;;14.20
63220;BMP180;49320;52.512;13.448;2023-02-01T13:02:42;100246.00;;;14.20
63220;BMP180;49320;52.512;13.448;2023-02-01T13:05:31;100257.00;;;14.30
63220;BMP180;49320;52.512;13.448;2023-02-01T13:08:25;100259.00;;;14.30
63220;BMP180;49320;52.512;13.448;2023-02-01T13:11:12;100253.00;;;14.30
63220;BMP180;49320;52.512;13.448;2023-02-01T13:14:52;100253.00;;;14.30
63220;BMP180;49320;52.512;13.448;2023-02-01T13:17:20;100256.00;;;14.30
63220;BMP180;49320;52.512;13.448;2023-02-01T13:20:26;100269.00;;;14.30
63220;BMP180;49320;52.512;13.448;2023-02-01T13:23:22;100302.00;;;14.20
63220;BMP180;49320;52.512;13.448;2023-02-01T13:25:52;100300.00;;;14.20
63220;BMP180;49320;52.512;13.448;2023-02-01T13:28:50;100307.00;;;14.20
63220;BMP180;49320;52.512;13.448;2023-02-01T13:32:12;100287.00;;;14.20
63220;BMP180;49320;52.512;13.448;2023-02-01T13:35:23;100291.00;;;14.20
63220;BMP180;49320;52.512;13.448;2023-02-01T13:38:37;100272.00;;;14.20
63220;BMP180;49320;52.512;13.448;2023-02-01T13:41:29;100274.00;;;14.20
63220;BMP180;49320;52.512;13.448;2023-02-01T13:44:03;100266.00;;;14.30
63220;BMP180;49320;52.512;13.448;2023-02-01T13:46:42;100273.00;;;14.30
63220;BMP180;49320;52.512;13.448;2023-02-01T13:49:26;100261.00;;;14.40
63220;BMP180;49320;52.512;13.448;2023-02-01T13:51:57;100265.00;;;14.40
63220;BMP180;49320;52.512;13.448;2023-02-01T13:54:39;100251.00;;;14.40
63220;BMP180;49320;52.512;13.448;2023-02-01T13:57:35;100245.00;;;14.30
63220;BMP180;49320;52.512;13.448;2023-02-01T14:00:27;100244.00;;;14.30
63220;BMP180;49320;52.512;13.448;2023-02-01T14:08:15;100231.00;;;14.40
63220;BMP180;49320;52.512;13.448;2023-02-01T14:10:49;100227.00;;;14.40
63220;BMP180;49320;52.512;13.448;2023-02-01T14:13:33;100236.00;;;14.40
63220;BMP180;49320;52.512;13.448;2023-02-01T14:24:24;100204.00;;;14.30
63220;BMP180;49320;52.512;13.448;2023-02-01T14:26:58;100207.00;;;14.30
63220;BMP180;49320;52.512;13.448;2023-02-01T14:32:07;100197.00;;;14.30
63220;BMP180;49320;52.512;13.448;2023-02-01T14:47:54;100175.00;;;14.10
63220;BMP180;49320;52.512;13.448;2023-02-01T14:59:17;100162.00;;;14.00
63220;BMP180;49320;52.512;13.448;2023-02-01T15:01:54;100160.00;;;14.00
63220;BMP180;49320;52.512;13.448;2023-02-01T15:04:26;100157.00;;;14.00
63220;BMP180;49320;52.512;13.448;2023-02-01T15:07:05;100153.00;;;14.00
63220;BMP180;49320;52.512;13.448;2023-02-01T15:09:43;100143.00;;;14.00
63220;BMP180;49320;52.512;13.448;2023-02-01T15:14:47;100143.00;;;14.00
63220;BMP180;49320;52.512;13.448;2023-02-01T15:20:17;100152.00;;;13.80
63220;BMP180;49320;52.512;13.448;2023-02-01T15:23:02;100163.00;;;13.70
63220;BMP180;49320;52.512;13.448;2023-02-01T15:25:37;100158.00;;;13.50
63220;BMP180;49320;52.512;13.448;2023-02-01T15:28:12;100166.00;;;13.40
63220;BMP180;49320;52.512;13.448;2023-02-01T15:30:39;100164.00;;;13.30
63220;BMP180;49320;52.512;13.448;2023-02-01T15:46:33;100182.00;;;12.70
63220;BMP180;49320;52.512;13.448;2023-02-01T15:49:02;100182.00;;;12.60
63220;BMP180;49320;52.512;13.448;2023-02-01T15:51:31;100174.00;;;12.40
63220;BMP180;49320;52.512;13.448;2023-02-01T15:54:06;100168.00;;;12.30